MMMY/MTY METAR and TAF weather

Enter ICAO airport designator
Station Type Date Time Source
MMMY METAR 2020/04/09 09:40 UTC NOAA

MMMY 090940Z 32004KT 7SM BKN250 23/22 A2986 RMK 8/008


Station Type Date Time Source
MMMY Decoded METAR 2020/04/09 09:40 UTC NOAA

Monterrey / Gen Maria, Mexico (MMMY) 25-47N 100-06W
Apr 09, 2020 - 05:40 AM EDT / 2020.04.09 0940 UTC
Wind: from the NW (320 degrees) at 5 MPH (4 KT):0
Visibility: 7 mile(s):0
Sky conditions: mostly cloudy
Temperature: 73 F (23 C)
Dew Point: 71 F (22 C)
Relative Humidity: 94%
Pressure (altimeter): 29.86 in. Hg (1011 hPa)
ob: MMMY 090940Z 32004KT 7SM BKN250 23/22 A2986 RMK 8/008
cycle: 9

Station Type Date Time Source
MMMY TAF 2020/04/09 06:09 UTC NOAA

TAF TAF MMMY 090507Z 0906/1012 08005KT P6SM SCT250 TX35/0920Z TN21/0912Z
FM091600 08010KT P6SM SCT020 BKN250
FM100000 30005KT P6SM SCT020 BKN080
FM100300 33015KT 3SM RA BKN012 OVC080
TEMPO 1003/1007 2SM SHRA
FM100700 30005KT 3SM BR HZ OVC010

Example: see airport list